Time;durP1;ratioP1;P1;durP2;ratioP2;P2;SDS_P1;SDS_P2;PMS_P1;PMS_P2;Temp;Humidity;BMP_temperature;BMP_pressure;BME280_temperature;BME280_humidity;BME280_pressure;Samples;Min_cycle;Max_cycle;Signal;HPM_P1;HPM_P2
2022/01/02 00:00:17;;;;;;;8.60;5.13;;;4.90;72.50;;;;;;5041211;28;20032;-78
2022/01/02 00:02:49;;;;;;;11.43;5.40;;;4.90;72.60;;;;;;5040608;28;20036;-79
2022/01/02 00:05:18;;;;;;;8.82;5.32;;;4.90;72.30;;;;;;5043004;28;20136;-79
2022/01/02 00:08:05;;;;;;;10.57;6.63;;;4.90;72.40;;;;;;5039310;28;20511;-79
2022/01/02 00:10:33;;;;;;;10.80;6.13;;;4.90;72.70;;;;;;5042573;28;20560;-79
2022/01/02 00:13:01;;;;;;;9.93;4.07;;;5.00;72.80;;;;;;5042623;28;20025;-79
2022/01/02 00:15:28;;;;;;;6.17;3.70;;;4.90;72.60;;;;;;5047687;28;20037;-79
2022/01/02 00:18:07;;;;;;;7.43;3.93;;;4.90;72.60;;;;;;5042681;28;20037;-79
2022/01/02 00:20:33;;;;;;;6.03;3.00;;;4.90;72.70;;;;;;5045949;28;20021;-79
2022/01/02 00:23:00;;;;;;;5.53;3.33;;;5.00;72.90;;;;;;5042483;28;20203;-79
2022/01/02 00:25:31;;;;;;;7.10;3.13;;;5.00;72.70;;;;;;5042116;28;20024;-79
2022/01/02 00:27:58;;;;;;;5.67;2.90;;;5.00;72.50;;;;;;5039471;28;20037;-79
2022/01/02 00:30:24;;;;;;;4.87;2.97;;;5.10;72.60;;;;;;5043391;28;20056;-79
2022/01/02 00:32:51;;;;;;;6.97;3.47;;;5.00;72.40;;;;;;5039267;28;21041;-79
2022/01/02 00:35:17;;;;;;;4.53;2.90;;;5.00;72.80;;;;;;5042876;28;20025;-79
2022/01/02 00:37:43;;;;;;;5.07;2.43;;;5.00;73.10;;;;;;5044208;28;20020;-79
2022/01/02 00:40:10;;;;;;;6.07;3.17;;;5.10;72.80;;;;;;5041558;28;20022;-79
2022/01/02 00:42:43;;;;;;;6.17;3.80;;;5.10;72.60;;;;;;5040820;28;20031;-79
2022/01/02 00:45:27;;;;;;;9.97;6.57;;;4.90;72.50;;;;;;5043243;28;20738;-79
2022/01/02 00:47:57;;;;;;;11.33;6.40;;;4.90;72.60;;;;;;5040830;28;20480;-80
2022/01/02 00:50:37;;;;;;;9.57;6.13;;;4.90;73.30;;;;;;5042855;28;20102;-79
2022/01/02 00:53:05;;;;;;;7.87;3.83;;;5.00;72.80;;;;;;5041668;28;20412;-79
2022/01/02 00:55:34;;;;;;;6.93;3.73;;;5.00;72.80;;;;;;5041786;28;20026;-79
2022/01/02 00:58:05;;;;;;;7.57;3.53;;;5.00;72.80;;;;;;5041090;28;20126;-79
2022/01/02 01:00:32;;;;;;;7.77;4.17;;;5.00;72.80;;;;;;5040566;28;20033;-79
2022/01/02 01:03:00;;;;;;;6.40;4.03;;;5.00;72.50;;;;;;5041089;28;20025;-79
2022/01/02 01:05:35;;;;;;;11.33;6.23;;;4.90;72.30;;;;;;5040810;28;20078;-79
2022/01/02 01:08:08;;;;;;;10.67;5.93;;;4.90;72.40;;;;;;5038295;28;20037;-79
2022/01/02 01:10:36;;;;;;;8.00;4.27;;;4.90;72.60;;;;;;5041287;28;20025;-79
2022/01/02 01:13:04;;;;;;;7.17;3.60;;;4.90;72.60;;;;;;5046201;28;20063;-79
2022/01/02 01:15:32;;;;;;;8.17;3.40;;;4.90;72.50;;;;;;5041469;28;20045;-79
2022/01/02 01:17:58;;;;;;;7.70;4.47;;;4.80;72.30;;;;;;5044493;28;20029;-79
2022/01/02 01:20:27;;;;;;;12.33;7.13;;;4.90;72.50;;;;;;5040518;28;20029;-79
2022/01/02 01:22:52;;;;;;;12.53;6.73;;;4.80;72.50;;;;;;5039236;28;20379;-79
2022/01/02 01:25:23;;;;;;;8.63;5.17;;;4.80;72.60;;;;;;5041712;28;20033;-79
2022/01/02 01:27:50;;;;;;;6.47;3.87;;;4.80;72.60;;;;;;5040904;28;20056;-79
2022/01/02 01:30:19;;;;;;;6.83;3.80;;;4.80;72.40;;;;;;5040690;28;20037;-79
2022/01/02 01:32:45;;;;;;;4.97;2.97;;;4.80;72.50;;;;;;5041497;28;20675;-79
2022/01/02 01:35:12;;;;;;;6.73;4.00;;;4.80;72.30;;;;;;5038184;28;20448;-79
2022/01/02 01:37:38;;;;;;;7.57;3.23;;;4.70;72.30;;;;;;5043374;28;20033;-79
2022/01/02 01:40:13;;;;;;;7.53;3.57;;;4.70;72.40;;;;;;5039726;28;20111;-79
2022/01/02 01:42:42;;;;;;;6.07;3.73;;;4.70;72.40;;;;;;5043466;28;20025;-79
2022/01/02 01:47:56;;;;;;;6.60;3.63;;;4.70;72.40;;;;;;5040642;28;20028;-79
2022/01/02 01:50:26;;;;;;;7.40;4.13;;;4.60;72.40;;;;;;5037541;28;20029;-79
2022/01/02 01:52:51;;;;;;;13.20;4.77;;;4.60;72.40;;;;;;5042193;28;20029;-79
2022/01/02 01:55:18;;;;;;;8.67;3.93;;;4.60;72.50;;;;;;5033942;28;20030;-80
2022/01/02 01:57:45;;;;;;;6.43;3.80;;;4.60;72.50;;;;;;5044165;28;20071;-79
2022/01/02 02:00:15;;;;;;;8.80;4.97;;;4.50;72.60;;;;;;5045076;28;20029;-79
2022/01/02 02:02:42;;;;;;;8.03;4.57;;;4.50;72.80;;;;;;5040968;28;20064;-80
2022/01/02 02:05:11;;;;;;;7.17;4.13;;;4.50;72.80;;;;;;5042001;28;20028;-79
2022/01/02 02:07:42;;;;;;;5.27;2.90;;;4.50;72.60;;;;;;5041859;28;20040;-79
2022/01/02 02:10:13;;;;;;;4.63;2.33;;;4.60;72.70;;;;;;5044831;28;20037;-79
2022/01/02 02:12:46;;;;;;;4.40;2.47;;;4.60;72.60;;;;;;5042391;28;20029;-79
2022/01/02 02:15:15;;;;;;;3.93;2.10;;;4.60;72.50;;;;;;5044931;28;20037;-79
2022/01/02 02:17:44;;;;;;;5.20;2.73;;;4.60;72.60;;;;;;5052302;28;20025;-79
2022/01/02 02:20:17;;;;;;;5.57;2.80;;;4.60;72.70;;;;;;5045261;28;20334;-79
2022/01/02 02:22:47;;;;;;;4.37;2.37;;;4.60;72.70;;;;;;5047581;28;20025;-79
2022/01/02 02:25:15;;;;;;;4.67;3.47;;;4.60;72.80;;;;;;5053374;28;20078;-79
2022/01/02 02:27:51;;;;;;;5.90;3.47;;;4.60;72.70;;;;;;5052983;28;20025;-79
2022/01/02 02:30:20;;;;;;;5.20;3.10;;;4.60;72.70;;;;;;5034939;28;20030;-79
2022/01/02 02:32:46;;;;;;;7.17;3.83;;;4.60;72.60;;;;;;5035555;28;20030;-79
2022/01/02 02:35:14;;;;;;;6.33;3.40;;;4.50;72.60;;;;;;5043180;28;20017;-79
2022/01/02 02:37:42;;;;;;;3.67;2.30;;;4.50;73.00;;;;;;5049020;28;20392;-79
2022/01/02 02:40:09;;;;;;;7.57;3.00;;;4.50;73.00;;;;;;5044626;28;20040;-79
2022/01/02 02:51:10;;;;;;;4.73;2.30;;;4.50;72.80;;;;;;5045715;28;20120;-79
2022/01/02 02:53:41;;;;;;;4.10;2.00;;;4.50;73.50;;;;;;5044229;28;20040;-79
2022/01/02 02:56:24;;;;;;;2.40;1.50;;;4.50;73.00;;;;;;5043652;28;20025;-79
2022/01/02 02:58:56;;;;;;;3.97;1.90;;;4.50;73.00;;;;;;5043351;28;20032;-79
2022/01/02 03:01:28;;;;;;;7.13;2.10;;;4.50;72.70;;;;;;5044036;28;20120;-79
2022/01/02 03:03:54;;;;;;;;;;;4.50;73.10;;;;;;5043686;28;20487;-79
2022/01/02 03:06:20;;;;;;;4.60;2.30;;;4.50;73.20;;;;;;5043297;28;19912;-79
2022/01/02 03:08:47;;;;;;;4.00;2.00;;;4.50;72.90;;;;;;5045997;28;20029;-79
2022/01/02 03:11:19;;;;;;;3.17;1.87;;;4.50;72.80;;;;;;5043954;28;20025;-80
2022/01/02 03:13:51;;;;;;;3.70;2.13;;;4.50;72.60;;;;;;5045700;28;20022;-79
2022/01/02 03:16:17;;;;;;;2.97;1.50;;;4.50;72.80;;;;;;5045566;28;20512;-80
2022/01/02 03:18:43;;;;;;;2.63;1.40;;;4.40;72.90;;;;;;5044899;28;20020;-79
2022/01/02 03:21:09;;;;;;;4.00;1.50;;;4.40;72.80;;;;;;5045320;28;20017;-79
2022/01/02 03:23:39;;;;;;;1.60;1.00;;;4.50;72.70;;;;;;5041581;28;20029;-79
2022/01/02 03:26:05;;;;;;;2.63;1.17;;;4.50;72.70;;;;;;5044248;28;20115;-79
2022/01/02 03:28:33;;;;;;;2.83;1.20;;;4.50;72.60;;;;;;5042517;28;20021;-79
2022/01/02 03:31:02;;;;;;;4.57;1.67;;;4.50;72.70;;;;;;5041257;28;20025;-79
2022/01/02 03:33:28;;;;;;;3.60;2.07;;;4.50;72.60;;;;;;5043673;28;20073;-79
2022/01/02 03:35:53;;;;;;;2.93;1.60;;;4.40;73.00;;;;;;5037890;28;20056;-79
2022/01/02 03:38:19;;;;;;;3.97;1.50;;;4.40;72.80;;;;;;5043550;28;20029;-79
2022/01/02 03:40:45;;;;;;;2.93;1.10;;;4.40;73.00;;;;;;5044423;28;20033;-79
2022/01/02 03:43:11;;;;;;;3.00;1.73;;;4.40;72.90;;;;;;5043442;28;20025;-79
2022/01/02 03:45:39;;;;;;;3.20;1.90;;;4.40;72.90;;;;;;5039771;28;20064;-79
2022/01/02 03:48:05;;;;;;;6.20;2.80;;;4.40;72.70;;;;;;5040872;28;20024;-79
2022/01/02 03:50:31;;;;;;;7.00;3.63;;;4.40;72.80;;;;;;5041883;28;20029;-80
2022/01/02 03:52:56;;;;;;;7.40;4.40;;;4.40;72.70;;;;;;5046400;28;20036;-79
2022/01/02 03:55:25;;;;;;;5.90;2.93;;;4.40;72.80;;;;;;5042772;28;20037;-79
2022/01/02 03:57:51;;;;;;;7.13;4.30;;;4.40;72.80;;;;;;5056729;28;20173;-80
2022/01/02 04:00:18;;;;;;;8.23;5.00;;;4.40;72.70;;;;;;5042479;28;20025;-79
2022/01/02 04:02:44;;;;;;;10.83;6.57;;;4.30;72.80;;;;;;5042226;28;20025;-79
2022/01/02 04:05:13;;;;;;;10.30;6.73;;;4.30;73.10;;;;;;5042131;28;20025;-79
2022/01/02 04:07:39;;;;;;;9.37;6.03;;;4.30;73.00;;;;;;5040240;28;20029;-79
2022/01/02 04:10:12;;;;;;;8.57;5.03;;;4.30;72.90;;;;;;5040120;28;20029;-80
2022/01/02 04:12:38;;;;;;;7.80;4.22;;;4.30;73.30;;;;;;5041393;28;20021;-79
2022/01/02 04:15:07;;;;;;;7.57;4.43;;;4.30;73.10;;;;;;5043427;28;20083;-79
2022/01/02 04:17:33;;;;;;;9.23;4.70;;;4.40;73.00;;;;;;5038162;28;20024;-79
2022/01/02 04:20:04;;;;;;;5.50;3.60;;;4.30;72.90;;;;;;5038940;28;20048;-79
2022/01/02 04:22:30;;;;;;;6.20;3.13;;;4.30;72.70;;;;;;5040954;28;21639;-79
2022/01/02 04:24:55;;;;;;;4.20;1.90;;;4.30;72.80;;;;;;5040935;28;20064;-80
2022/01/02 04:27:22;;;;;;;3.83;2.47;;;4.30;72.70;;;;;;5041238;28;20033;-79
2022/01/02 04:29:47;;;;;;;4.33;2.60;;;4.20;72.60;;;;;;5041986;28;20028;-80
2022/01/02 04:32:14;;;;;;;5.47;2.50;;;4.20;72.90;;;;;;5041024;28;20476;-79
2022/01/02 04:34:40;;;;;;;4.27;2.50;;;4.20;73.10;;;;;;5043596;28;20021;-79
2022/01/02 04:37:07;;;;;;;4.23;2.20;;;4.20;73.40;;;;;;5038571;28;20458;-79
2022/01/02 04:39:33;;;;;;;6.40;2.63;;;4.20;73.20;;;;;;5042029;28;21386;-80
2022/01/02 04:41:59;;;;;;;4.50;1.90;;;4.30;73.10;;;;;;5042485;28;20028;-79
2022/01/02 04:44:26;;;;;;;3.10;1.73;;;4.30;73.20;;;;;;5039680;28;20025;-80
2022/01/02 04:46:52;;;;;;;2.63;1.50;;;4.30;73.10;;;;;;5039410;28;20089;-79
2022/01/02 04:49:18;;;;;;;2.07;1.13;;;4.30;73.10;;;;;;5034443;28;20032;-79
2022/01/02 04:51:44;;;;;;;4.80;1.73;;;4.30;73.10;;;;;;5041663;28;20048;-79
2022/01/02 04:54:09;;;;;;;2.60;1.20;;;4.30;72.90;;;;;;5042671;28;20096;-79
2022/01/02 04:56:35;;;;;;;1.80;1.10;;;4.40;73.50;;;;;;5039484;28;20036;-80
2022/01/02 04:59:01;;;;;;;2.23;1.33;;;4.30;72.80;;;;;;5040631;28;20021;-79
2022/01/02 05:01:27;;;;;;;2.93;1.57;;;4.40;72.80;;;;;;5042016;28;20048;-80
2022/01/02 05:03:52;;;;;;;3.87;2.07;;;4.40;72.70;;;;;;5040667;28;20033;-79
2022/01/02 05:06:18;;;;;;;3.50;1.73;;;4.40;72.60;;;;;;5040029;28;20293;-79
2022/01/02 05:08:45;;;;;;;2.27;1.47;;;4.30;72.60;;;;;;5041608;28;20511;-80
2022/01/02 05:11:19;;;;;;;2.83;1.83;;;4.20;72.80;;;;;;5039251;28;20034;-79
2022/01/02 05:13:45;;;;;;;14.33;6.13;;;4.20;72.90;;;;;;5041893;28;20117;-79
2022/01/02 05:16:11;;;;;;;23.47;11.97;;;4.20;72.90;;;;;;5041319;28;20132;-79
2022/01/02 05:18:36;;;;;;;14.40;8.03;;;4.20;72.80;;;;;;5041201;28;20486;-79
2022/01/02 05:21:05;;;;;;;21.47;9.13;;;4.20;72.60;;;;;;5043466;28;20025;-79
2022/01/02 05:23:30;;;;;;;10.03;5.67;;;4.20;72.80;;;;;;5043137;28;20083;-79
2022/01/02 05:25:58;;;;;;;9.23;4.80;;;4.10;72.80;;;;;;5042571;28;20021;-79
2022/01/02 05:28:24;;;;;;;8.07;4.10;;;4.10;72.80;;;;;;5046250;28;20040;-79
2022/01/02 05:30:51;;;;;;;9.13;4.67;;;4.10;72.60;;;;;;5042092;28;20497;-79
2022/01/02 05:33:21;;;;;;;6.20;3.23;;;4.10;72.90;;;;;;5045791;28;20036;-79
2022/01/02 05:35:50;;;;;;;6.37;3.53;;;4.10;72.40;;;;;;5049923;28;20021;-79
2022/01/02 05:38:19;;;;;;;5.93;3.20;;;4.10;72.70;;;;;;5044854;28;20028;-79
2022/01/02 05:40:45;;;;;;;9.90;4.03;;;4.10;72.90;;;;;;5048048;28;20033;-79
2022/01/02 05:43:10;;;;;;;5.37;3.27;;;4.10;72.90;;;;;;5040568;28;20389;-79
2022/01/02 05:45:36;;;;;;;9.17;3.63;;;4.00;72.80;;;;;;5043058;28;20035;-79
2022/01/02 05:48:05;;;;;;;8.20;4.90;;;4.00;72.70;;;;;;5058252;28;20470;-79
2022/01/02 05:50:31;;;;;;;5.80;3.40;;;4.10;72.80;;;;;;5043129;28;20037;-80
2022/01/02 05:52:56;;;;;;;11.43;6.83;;;4.10;72.70;;;;;;5043301;28;20075;-79
2022/01/02 05:55:22;;;;;;;8.87;4.43;;;4.00;72.60;;;;;;5042232;28;20029;-79
2022/01/02 05:57:51;;;;;;;7.17;3.87;;;4.10;72.60;;;;;;5041118;28;20484;-79
2022/01/02 06:00:16;;;;;;;6.93;3.87;;;4.00;72.50;;;;;;5038237;28;20120;-79
2022/01/02 06:02:42;;;;;;;6.50;3.97;;;4.00;72.70;;;;;;5043518;28;20108;-79
2022/01/02 06:05:08;;;;;;;8.33;4.00;;;4.00;72.70;;;;;;5052586;28;20578;-79
2022/01/02 06:07:34;;;;;;;9.00;5.67;;;3.90;72.80;;;;;;5042135;28;20496;-79
2022/01/02 06:10:02;;;;;;;8.80;5.50;;;4.00;72.80;;;;;;5042573;28;20033;-79
2022/01/02 06:12:31;;;;;;;9.90;5.77;;;4.00;72.80;;;;;;5043638;28;20243;-79
2022/01/02 06:14:57;;;;;;;9.47;5.93;;;4.00;72.70;;;;;;5047492;28;20044;-79
2022/01/02 06:17:23;;;;;;;10.33;6.00;;;3.90;72.80;;;;;;5043494;28;20620;-79
2022/01/02 06:19:49;;;;;;;8.47;5.10;;;3.90;72.90;;;;;;5042405;28;20029;-79
2022/01/02 06:22:14;;;;;;;8.07;5.77;;;3.90;72.80;;;;;;5044298;28;20116;-79
2022/01/02 06:24:43;;;;;;;12.37;5.77;;;3.90;72.70;;;;;;5043984;28;20029;-79
2022/01/02 06:27:08;;;;;;;8.50;5.67;;;3.90;72.70;;;;;;5042817;28;21374;-79
2022/01/02 06:29:34;;;;;;;13.03;6.37;;;3.90;72.60;;;;;;5042308;28;20086;-79
2022/01/02 06:32:00;;;;;;;9.43;5.60;;;3.90;72.70;;;;;;5041298;28;20051;-79
2022/01/02 06:34:25;;;;;;;19.20;8.37;;;3.90;72.70;;;;;;5041416;28;20025;-79
2022/01/02 06:36:51;;;;;;;13.47;8.30;;;3.90;72.70;;;;;;5042372;28;20518;-79
2022/01/02 06:39:17;;;;;;;11.90;8.07;;;3.90;72.60;;;;;;5039748;28;20255;-79
2022/01/02 06:41:42;;;;;;;13.47;7.97;;;3.90;72.40;;;;;;5040253;28;20084;-79
2022/01/02 06:44:08;;;;;;;14.40;8.50;;;3.80;72.50;;;;;;5042591;28;20037;-79
2022/01/02 06:46:34;;;;;;;11.23;7.27;;;3.80;72.50;;;;;;5041734;28;20048;-79
2022/01/02 06:48:59;;;;;;;12.07;8.50;;;3.80;72.60;;;;;;5041219;28;20029;-79
2022/01/02 06:51:25;;;;;;;16.93;11.27;;;3.80;72.60;;;;;;5042157;28;20034;-79
2022/01/02 06:53:51;;;;;;;18.47;12.07;;;3.70;72.50;;;;;;5046548;28;20025;-79
2022/01/02 06:56:19;;;;;;;21.27;13.10;;;3.80;72.90;;;;;;5041537;28;20711;-79
2022/01/02 06:58:45;;;;;;;17.50;11.03;;;3.80;72.90;;;;;;5041254;28;20667;-79
2022/01/02 07:01:11;;;;;;;15.53;9.80;;;3.80;73.20;;;;;;5041868;28;20035;-79
2022/01/02 07:03:37;;;;;;;15.27;9.27;;;3.80;73.00;;;;;;5042196;28;20094;-79
2022/01/02 07:06:03;;;;;;;13.67;7.63;;;3.80;72.80;;;;;;5041294;28;20495;-78
2022/01/02 07:08:29;;;;;;;15.13;9.50;;;3.70;72.90;;;;;;5041929;28;20080;-79
2022/01/02 07:10:56;;;;;;;20.33;13.00;;;3.80;73.10;;;;;;5043351;28;20025;-79
2022/01/02 07:13:22;;;;;;;18.60;11.10;;;3.80;73.10;;;;;;5042803;28;20112;-79
2022/01/02 07:15:48;;;;;;;13.27;8.83;;;3.80;73.00;;;;;;5045109;28;20479;-79
2022/01/02 07:18:14;;;;;;;16.67;9.70;;;3.80;73.00;;;;;;5042172;28;20483;-79
2022/01/02 07:20:39;;;;;;;8.17;4.83;;;3.90;73.00;;;;;;5043264;28;20029;-79
2022/01/02 07:23:05;;;;;;;10.23;5.30;;;3.90;72.90;;;;;;5044018;28;20597;-79
2022/01/02 07:25:31;;;;;;;12.40;5.33;;;3.90;72.90;;;;;;5042853;28;20030;-80
2022/01/02 07:27:56;;;;;;;7.63;4.57;;;4.00;72.90;;;;;;5038274;28;20648;-79
2022/01/02 07:30:22;;;;;;;7.80;3.93;;;4.00;72.90;;;;;;5041891;28;20067;-80
2022/01/02 07:32:48;;;;;;;20.37;10.37;;;4.00;72.70;;;;;;5039223;28;20036;-80
2022/01/02 07:35:14;;;;;;;21.17;11.23;;;4.00;72.90;;;;;;5041347;28;20113;-79
2022/01/02 07:37:39;;;;;;;8.40;5.20;;;4.10;72.90;;;;;;5044424;28;20025;-79
2022/01/02 07:40:08;;;;;;;13.70;7.07;;;4.00;73.10;;;;;;5042313;28;20029;-80
2022/01/02 07:42:37;;;;;;;9.53;5.90;;;4.00;73.10;;;;;;5041686;28;20486;-79
2022/01/02 07:45:09;;;;;;;10.53;6.83;;;4.00;73.10;;;;;;5040831;28;20034;-79
2022/01/02 07:47:38;;;;;;;10.77;6.07;;;4.10;73.00;;;;;;5044574;28;20025;-79
2022/01/02 07:50:04;;;;;;;9.23;4.73;;;4.10;72.80;;;;;;5056333;28;20091;-79
2022/01/02 07:52:29;;;;;;;8.70;5.50;;;4.00;72.90;;;;;;5048079;28;20412;-79
2022/01/02 07:54:55;;;;;;;11.10;6.93;;;4.10;73.10;;;;;;5050149;28;20455;-79
2022/01/02 07:57:21;;;;;;;17.07;8.73;;;4.20;73.50;;;;;;5053187;28;20033;-79
2022/01/02 07:59:47;;;;;;;17.73;10.37;;;4.10;73.10;;;;;;5051284;28;20532;-79
2022/01/02 08:02:13;;;;;;;17.17;9.97;;;4.10;73.10;;;;;;5051926;28;20039;-79
2022/01/02 08:04:38;;;;;;;14.00;8.07;;;4.10;72.90;;;;;;5043606;28;20750;-79
2022/01/02 08:07:04;;;;;;;15.30;8.37;;;4.10;73.20;;;;;;5051582;28;20025;-79
2022/01/02 08:09:32;;;;;;;11.03;6.57;;;4.10;73.10;;;;;;5052186;28;20025;-79
2022/01/02 08:11:58;;;;;;;10.50;6.60;;;4.20;73.10;;;;;;5050573;28;20484;-79
2022/01/02 08:14:24;;;;;;;9.97;6.73;;;4.30;73.10;;;;;;5052379;28;20062;-79
2022/01/02 08:16:49;;;;;;;10.40;6.20;;;4.40;72.80;;;;;;5050175;28;20020;-79
2022/01/02 08:19:15;;;;;;;8.90;5.63;;;4.30;72.70;;;;;;5052917;28;20028;-79
2022/01/02 08:21:41;;;;;;;12.57;5.90;;;4.40;72.90;;;;;;5052967;28;20388;-79
2022/01/02 08:24:12;;;;;;;8.00;5.73;;;4.40;73.10;;;;;;5051282;28;20411;-79
2022/01/02 08:26:38;;;;;;;10.17;6.80;;;4.50;72.90;;;;;;5051400;28;20025;-79
2022/01/02 08:29:04;;;;;;;9.77;6.37;;;4.50;72.80;;;;;;5047346;28;20029;-79
2022/01/02 08:31:30;;;;;;;11.73;6.87;;;4.50;72.60;;;;;;5048006;28;20029;-79
2022/01/02 08:33:57;;;;;;;17.83;7.67;;;4.60;72.60;;;;;;5045589;28;20025;-79
2022/01/02 08:36:23;;;;;;;10.63;6.47;;;4.60;72.50;;;;;;5045046;28;20044;-79
2022/01/02 08:38:52;;;;;;;12.63;7.40;;;4.70;72.50;;;;;;5050910;28;20025;-79
2022/01/02 08:41:18;;;;;;;12.00;7.70;;;4.70;72.50;;;;;;5048016;28;20431;-79
2022/01/02 08:43:44;;;;;;;14.40;8.50;;;4.80;72.60;;;;;;5050365;28;20044;-79
2022/01/02 08:46:13;;;;;;;12.47;6.67;;;4.80;72.60;;;;;;5045730;28;20025;-79
2022/01/02 08:48:38;;;;;;;9.10;5.13;;;4.80;72.20;;;;;;5051143;28;20047;-79
2022/01/02 08:51:05;;;;;;;10.37;6.03;;;4.90;72.20;;;;;;5051059;28;20025;-79
2022/01/02 08:53:32;;;;;;;12.57;7.43;;;4.90;72.20;;;;;;5045942;28;20114;-79
2022/01/02 08:55:58;;;;;;;15.50;9.50;;;5.00;72.10;;;;;;5050814;28;20023;-79
2022/01/02 08:58:24;;;;;;;12.17;6.97;;;5.00;71.70;;;;;;5049806;28;20029;-79
2022/01/02 09:00:49;;;;;;;9.20;5.50;;;5.10;72.20;;;;;;5044593;28;20104;-79
2022/01/02 09:03:15;;;;;;;5.37;3.67;;;5.10;71.90;;;;;;5049771;28;20530;-79
2022/01/02 09:05:42;;;;;;;4.93;3.40;;;5.20;71.70;;;;;;5049884;28;20128;-79
2022/01/02 09:08:08;;;;;;;6.27;3.13;;;5.20;71.20;;;;;;5052238;28;20494;-79
2022/01/02 09:10:33;;;;;;;5.57;3.37;;;5.20;70.70;;;;;;5048297;28;20041;-79
2022/01/02 09:12:59;;;;;;;7.37;3.30;;;5.30;70.80;;;;;;5047244;28;20116;-79
2022/01/02 09:15:27;;;;;;;9.60;5.67;;;5.40;70.70;;;;;;5049706;28;20046;-79
2022/01/02 09:17:54;;;;;;;9.80;5.50;;;5.50;70.50;;;;;;5044489;28;20045;-79
2022/01/02 09:20:21;;;;;;;8.70;4.70;;;5.50;70.60;;;;;;5042512;28;20029;-79
2022/01/02 09:22:47;;;;;;;6.10;3.53;;;5.60;70.80;;;;;;5045750;28;20045;-78
2022/01/02 09:25:15;;;;;;;5.47;3.60;;;5.80;70.70;;;;;;5048517;28;20055;-79
2022/01/02 09:27:41;;;;;;;5.27;3.23;;;6.10;69.70;;;;;;5035129;28;20653;-79
2022/01/02 09:30:08;;;;;;;7.20;3.30;;;6.20;69.00;;;;;;5043234;28;20033;-78
2022/01/02 09:32:34;;;;;;;5.43;3.00;;;6.30;68.30;;;;;;5050283;28;20041;-79
2022/01/02 09:35:08;;;;;;;5.93;3.40;;;6.50;67.20;;;;;;5050344;28;20032;-79
2022/01/02 09:37:37;;;;;;;5.37;3.10;;;6.80;67.10;;;;;;5046442;28;20029;-79
2022/01/02 09:40:07;;;;;;;6.53;3.60;;;7.00;66.10;;;;;;5032341;28;20509;-79
2022/01/02 09:42:34;;;;;;;6.40;3.90;;;7.00;65.70;;;;;;5043613;28;20056;-79
2022/01/02 09:45:00;;;;;;;6.80;4.03;;;7.10;65.80;;;;;;5051661;28;20411;-79
2022/01/02 09:47:26;;;;;;;7.57;4.37;;;7.20;66.00;;;;;;5046227;28;20119;-79
2022/01/02 09:49:52;;;;;;;9.30;5.03;;;7.30;66.00;;;;;;5050543;28;20025;-79
2022/01/02 09:52:18;;;;;;;10.23;4.07;;;7.40;65.80;;;;;;5051479;28;20483;-79
2022/01/02 09:54:45;;;;;;;8.73;4.23;;;7.50;66.00;;;;;;5049800;28;20021;-79
2022/01/02 09:57:14;;;;;;;7.27;5.00;;;7.60;65.80;;;;;;5051087;28;20108;-79
2022/01/02 09:59:42;;;;;;;8.17;5.00;;;7.60;65.60;;;;;;5041666;28;20109;-79
2022/01/02 10:02:08;;;;;;;6.67;3.80;;;7.60;65.60;;;;;;5030970;28;20048;-79
2022/01/02 10:04:40;;;;;;;5.50;3.37;;;7.60;65.30;;;;;;5031593;28;20025;-79
2022/01/02 10:07:25;;;;;;;5.63;3.15;;;7.60;65.20;;;;;;5040246;28;20037;-79
2022/01/02 10:09:51;;;;;;;5.63;3.77;;;7.60;65.20;;;;;;5051068;28;20040;-79
2022/01/02 10:12:25;;;;;;;8.47;3.87;;;7.70;65.20;;;;;;5046277;28;20476;-79
2022/01/02 10:15:06;;;;;;;9.70;3.90;;;7.70;65.00;;;;;;5048970;28;20406;-79
2022/01/02 10:18:06;;;;;;;7.20;3.87;;;7.70;64.70;;;;;;5045328;28;20369;-79
2022/01/02 10:20:34;;;;;;;11.50;5.93;;;7.70;64.60;;;;;;5037622;28;20072;-79
2022/01/02 10:23:23;;;;;;;8.90;5.77;;;7.70;65.50;;;;;;5053321;28;20036;-79
2022/01/02 10:25:55;;;;;;;7.90;4.40;;;7.70;64.80;;;;;;5054207;28;20031;-79
2022/01/02 10:28:28;;;;;;;8.38;4.57;;;7.60;64.80;;;;;;5053705;28;20025;-79
2022/01/02 10:30:59;;;;;;;5.38;3.85;;;7.50;64.80;;;;;;5054352;28;20078;-79
2022/01/02 10:33:26;;;;;;;6.53;4.30;;;7.60;65.00;;;;;;5054000;28;20610;-79
2022/01/02 10:36:01;;;;;;;6.63;3.93;;;7.70;64.90;;;;;;5054282;28;20029;-79
2022/01/02 10:38:28;;;;;;;6.73;4.60;;;7.80;64.90;;;;;;5051654;28;20066;-79
2022/01/02 10:40:54;;;;;;;11.27;5.23;;;7.90;64.90;;;;;;5054711;28;20060;-79
2022/01/02 10:43:30;;;;;;;9.17;5.17;;;8.20;64.90;;;;;;5054726;28;20052;-79
2022/01/02 10:45:58;;;;;;;6.80;4.70;;;8.50;64.50;;;;;;5048920;28;20025;-79
2022/01/02 10:48:34;;;;;;;4.87;3.50;;;8.60;63.90;;;;;;5063860;28;20025;-80
2022/01/02 10:51:06;;;;;;;4.60;3.10;;;8.90;63.80;;;;;;5054186;28;20039;-79
2022/01/02 10:53:34;;;;;;;5.33;3.27;;;9.10;63.00;;;;;;5054531;28;20024;-80
2022/01/02 10:56:01;;;;;;;4.47;2.93;;;9.30;62.50;;;;;;5052255;28;20106;-80
2022/01/02 10:58:28;;;;;;;6.87;3.20;;;9.40;62.10;;;;;;5050304;28;20033;-79
2022/01/02 11:01:01;;;;;;;4.97;3.10;;;9.50;61.70;;;;;;5047558;28;20040;-80
2022/01/02 11:03:28;;;;;;;5.30;2.67;;;9.60;61.20;;;;;;5036288;28;20021;-80
2022/01/02 11:06:00;;;;;;;4.60;2.57;;;9.70;61.30;;;;;;5045883;28;20057;-80
2022/01/02 11:08:29;;;;;;;7.15;3.00;;;9.90;60.70;;;;;;5054725;28;20036;-80
2022/01/02 11:10:56;;;;;;;4.37;2.60;;;10.00;60.30;;;;;;5053231;28;20460;-79
2022/01/02 11:13:22;;;;;;;4.33;2.57;;;10.10;60.20;;;;;;5054111;28;20056;-80
2022/01/02 11:15:48;;;;;;;4.00;2.37;;;10.30;60.30;;;;;;5034314;28;20562;-80
2022/01/02 11:18:14;;;;;;;5.60;3.10;;;10.40;60.20;;;;;;5033119;28;20022;-80
2022/01/02 11:20:41;;;;;;;5.30;3.20;;;10.50;58.90;;;;;;5051244;28;20021;-80
2022/01/02 11:23:22;;;;;;;5.20;3.03;;;10.60;58.30;;;;;;5044482;28;20571;-80
2022/01/02 11:26:02;;;;;;;5.90;3.20;;;10.60;58.20;;;;;;5032697;28;20029;-80
2022/01/02 11:28:44;;;;;;;6.27;4.03;;;10.60;58.10;;;;;;5039601;28;20432;-80
2022/01/02 11:31:10;;;;;;;4.50;3.33;;;10.70;58.00;;;;;;5049617;28;20060;-80
2022/01/02 11:33:41;;;;;;;7.63;3.53;;;10.70;58.30;;;;;;5042122;28;20057;-80
2022/01/02 11:36:23;;;;;;;4.30;2.80;;;10.70;57.70;;;;;;5049645;28;20067;-80
2022/01/02 11:39:10;;;;;;;5.35;3.28;;;10.70;57.30;;;;;;5046317;28;20113;-80
2022/01/02 11:41:39;;;;;;;6.53;3.03;;;10.70;57.10;;;;;;5032076;28;20064;-80
2022/01/02 11:44:10;;;;;;;5.53;3.00;;;10.80;57.20;;;;;;5033215;28;20053;-80
2022/01/02 11:46:54;;;;;;;3.67;2.30;;;10.80;57.10;;;;;;5043115;28;20036;-80
2022/01/02 11:49:27;;;;;;;7.20;3.10;;;10.80;56.80;;;;;;5046022;28;20029;-80
2022/01/02 11:52:03;;;;;;;5.32;3.30;;;10.80;57.10;;;;;;5042604;28;20029;-80
2022/01/02 11:54:48;;;;;;;5.83;3.27;;;10.80;57.20;;;;;;5044202;28;20789;-80
2022/01/02 11:57:14;;;;;;;8.77;3.17;;;10.60;57.10;;;;;;5043278;28;20051;-80
2022/01/02 11:59:59;;;;;;;5.67;3.00;;;10.60;57.30;;;;;;5042159;28;20469;-80
2022/01/02 12:02:25;;;;;;;8.73;3.60;;;10.60;57.30;;;;;;5038464;28;20036;-80
2022/01/02 12:05:14;;;;;;;8.70;4.03;;;10.50;57.20;;;;;;5038468;28;20032;-80
2022/01/02 12:07:45;;;;;;;7.83;3.47;;;10.50;57.10;;;;;;5039524;28;20032;-79
2022/01/02 12:10:17;;;;;;;7.90;3.50;;;10.50;57.30;;;;;;5043515;28;20028;-80
2022/01/02 12:13:06;;;;;;;8.23;3.57;;;10.50;57.30;;;;;;5042127;28;20562;-80
2022/01/02 12:15:32;;;;;;;5.97;3.57;;;10.50;57.40;;;;;;5036549;28;20396;-80
2022/01/02 12:20:51;;;;;;;7.67;4.37;;;10.30;57.70;;;;;;5039061;28;20025;-80
2022/01/02 12:23:36;;;;;;;8.10;5.13;;;10.20;58.20;;;;;;5042468;28;20040;-80
2022/01/02 12:26:01;;;;;;;8.37;5.73;;;10.10;58.40;;;;;;5040459;28;20037;-80
2022/01/02 12:28:36;;;;;;;8.33;4.57;;;10.00;58.70;;;;;;5045150;28;20506;-80
2022/01/02 12:31:02;;;;;;;8.30;4.13;;;10.00;58.70;;;;;;5042548;28;20037;-80
2022/01/02 12:33:30;;;;;;;6.00;3.30;;;9.90;58.70;;;;;;5031214;28;20116;-80
2022/01/02 12:35:56;;;;;;;6.50;3.57;;;9.90;58.50;;;;;;5050423;28;20025;-79
2022/01/02 12:38:22;;;;;;;7.47;4.47;;;9.90;58.70;;;;;;5049528;28;20033;-79
2022/01/02 12:40:49;;;;;;;7.20;4.07;;;10.00;58.80;;;;;;5067402;28;20036;-80
2022/01/02 12:43:23;;;;;;;8.93;4.43;;;10.00;58.80;;;;;;5065988;28;20017;-80
2022/01/02 12:45:55;;;;;;;7.17;4.80;;;9.90;58.90;;;;;;5038564;28;20488;-80
2022/01/02 12:48:34;;;;;;;8.38;5.22;;;9.90;59.00;;;;;;5049752;28;20033;-79
2022/01/02 12:51:14;;;;;;;15.37;6.93;;;9.90;59.20;;;;;;5033246;28;20067;-79
2022/01/02 12:53:40;;;;;;;12.73;7.23;;;9.90;59.10;;;;;;5037983;28;20067;-79
2022/01/02 12:56:06;;;;;;;12.33;5.83;;;9.90;59.20;;;;;;5045500;28;20022;-80
2022/01/02 12:58:34;;;;;;;10.93;4.93;;;10.00;59.20;;;;;;5048208;28;20025;-80
2022/01/02 13:01:04;;;;;;;10.47;5.30;;;10.00;59.10;;;;;;5050190;28;20139;-80
2022/01/02 13:03:29;;;;;;;9.87;4.70;;;9.90;59.10;;;;;;5049789;28;20087;-79
2022/01/02 13:05:55;;;;;;;10.23;5.00;;;9.90;59.30;;;;;;5049734;28;20066;-79
2022/01/02 13:08:26;;;;;;;11.83;4.57;;;9.90;59.50;;;;;;5040954;28;20371;-80
2022/01/02 13:10:54;;;;;;;8.73;4.60;;;9.80;59.60;;;;;;5043141;28;20033;-80
2022/01/02 13:13:31;;;;;;;9.20;5.57;;;9.90;59.80;;;;;;5043759;28;20107;-79